Time;durP1;ratioP1;P1;durP2;ratioP2;P2;SDS_P1;SDS_P2;PMS_P1;PMS_P2;Temp;Humidity;BMP_temperature;BMP_pressure;BME280_temperature;BME280_humidity;BME280_pressure;Samples;Min_cycle;Max_cycle;Signal;HPM_P1;HPM_P2
2023/02/02 00:06:56;;;;;;;7.60;1.60;;;;;;;2.40;77.78;99381.66;30860918;28;97420;-65
2023/02/02 00:21:56;;;;;;;10.60;1.42;;;;;;;2.30;77.97;99377.22;30859243;28;96830;-65
2023/02/02 00:36:57;;;;;;;7.30;1.85;;;;;;;2.32;78.20;99392.84;30858911;28;96669;-65
2023/02/02 00:51:59;;;;;;;4.55;1.65;;;;;;;2.47;78.36;99409.88;30857038;28;96616;-65
2023/02/02 01:06:59;;;;;;;7.55;2.70;;;;;;;2.48;78.06;99421.22;30856033;28;96606;-65
2023/02/02 01:21:59;;;;;;;6.07;2.03;;;;;;;2.59;77.71;99433.44;30855190;28;96839;-65
2023/02/02 01:37:00;;;;;;;5.20;1.23;;;;;;;2.62;77.00;99423.44;30875521;28;96704;-67
2023/02/02 01:52:00;;;;;;;2.15;1.15;;;;;;;2.68;76.29;99415.00;30874125;28;97192;-66
2023/02/02 02:07:03;;;;;;;4.00;0.90;;;;;;;2.80;75.97;99401.72;30873017;28;97036;-65
2023/02/02 02:37:59;;;;;;;4.68;0.80;;;;;;;2.80;75.46;99397.31;30868441;28;96799;-66
2023/02/02 02:53:06;;;;;;;7.60;1.33;;;;;;;2.85;75.22;99395.06;30868065;28;96555;-66
2023/02/02 03:08:19;;;;;;;3.88;1.00;;;;;;;2.93;74.37;99380.41;30866582;28;96804;-66
2023/02/02 03:23:20;;;;;;;6.22;2.00;;;;;;;2.98;74.03;99368.47;30864372;28;97169;-66
2023/02/02 03:38:20;;;;;;;10.88;1.98;;;;;;;2.90;73.82;99328.88;30863058;28;96667;-65
2023/02/02 03:53:21;;;;;;;3.60;1.25;;;;;;;2.86;73.32;99314.34;30860335;28;97116;-65
2023/02/02 04:08:22;;;;;;;3.45;0.50;;;;;;;2.96;73.23;99312.50;30859762;28;96677;-67
2023/02/02 04:23:22;;;;;;;5.43;1.58;;;;;;;3.01;72.42;99318.19;30757686;28;96959;-65
2023/02/02 04:38:23;;;;;;;8.93;1.55;;;;;;;3.16;72.30;99317.75;30748981;28;96806;-65
2023/02/02 04:53:23;;;;;;;2.70;1.42;;;;;;;3.26;71.67;99302.72;30731157;28;96720;-67
2023/02/02 05:08:24;;;;;;;7.00;0.60;;;;;;;3.32;71.25;99317.94;30806694;28;97281;-69
2023/02/02 05:23:24;;;;;;;2.03;0.80;;;;;;;3.41;71.87;99315.41;30782870;28;96868;-72
2023/02/02 05:38:24;;;;;;;0.52;0.40;;;;;;;3.48;70.87;99290.16;30847321;28;97359;-65
2023/02/02 05:53:26;;;;;;;2.97;0.85;;;;;;;3.46;70.68;99282.41;30842782;28;96967;-68
2023/02/02 06:08:26;;;;;;;3.67;1.45;;;;;;;3.52;71.05;99338.91;30787390;28;97014;-69
2023/02/02 06:23:27;;;;;;;4.70;1.00;;;;;;;3.55;70.86;99350.00;30870306;28;97102;-71
2023/02/02 06:38:28;;;;;;;1.23;0.90;;;;;;;3.52;71.35;99383.69;30866053;28;96603;-68
2023/02/02 06:53:28;;;;;;;1.92;1.52;;;;;;;3.25;72.05;99411.59;30867777;28;96699;-69
2023/02/02 07:08:28;;;;;;;3.65;1.15;;;;;;;3.29;72.87;99417.44;30866453;28;96628;-69
2023/02/02 07:23:29;;;;;;;0.63;0.47;;;;;;;3.34;72.89;99445.00;30743709;28;97105;-73
2023/02/02 07:38:30;;;;;;;3.47;1.00;;;;;;;3.47;72.81;99459.66;30742264;28;96718;-71
2023/02/02 07:53:31;;;;;;;1.70;0.93;;;;;;;3.50;72.82;99468.09;30740400;28;96761;-69
2023/02/02 08:08:31;;;;;;;11.50;1.35;;;;;;;3.78;72.88;99506.84;30739925;28;96642;-68
2023/02/02 08:23:31;;;;;;;2.45;1.08;;;;;;;4.22;72.25;99536.94;30853829;28;98285;-68
2023/02/02 08:38:32;;;;;;;1.90;0.70;;;;;;;4.44;71.08;99577.06;30857570;28;96839;-70
2023/02/02 08:53:32;;;;;;;3.63;1.38;;;;;;;4.94;70.40;99583.75;30852448;28;96996;-66
2023/02/02 09:08:33;;;;;;;1.35;0.82;;;;;;;7.31;66.38;99611.00;30843993;28;97060;-66
2023/02/02 09:23:36;;;;;;;2.50;1.02;;;;;;;7.23;66.34;99634.84;30838769;28;97588;-66
2023/02/02 09:38:37;;;;;;;2.47;0.93;;;;;;;6.51;65.37;99672.31;30847956;28;96801;-66
2023/02/02 09:53:45;;;;;;;5.78;1.40;;;;;;;6.27;65.32;99687.00;30867666;28;96686;-67
2023/02/02 10:08:52;;;;;;;3.63;1.15;;;;;;;5.54;65.48;99698.59;30870512;28;96611;-66
2023/02/02 10:23:53;;;;;;;3.88;0.90;;;;;;;5.45;66.81;99721.44;30867742;28;96752;-67
2023/02/02 10:39:25;;;;;;;1.45;0.75;;;;;;;5.43;67.37;99736.63;30866100;28;96622;-67
2023/02/02 10:54:49;;;;;;;4.38;1.45;;;;;;;6.39;66.51;99765.16;30863893;28;96791;-67
2023/02/02 11:09:51;;;;;;;1.58;0.93;;;;;;;7.26;64.56;99786.38;30863717;28;97806;-67
2023/02/02 11:24:52;;;;;;;1.43;0.83;;;;;;;9.74;63.09;99796.94;30862620;28;97434;-67
2023/02/02 11:39:53;;;;;;;3.30;1.43;;;;;;;13.47;57.85;99817.81;30861170;28;96671;-67
2023/02/02 11:54:59;;;;;;;3.35;1.15;;;;;;;20.52;39.88;99829.25;30858426;28;97407;-68
2023/02/02 12:10:06;;;;;;;3.23;0.90;;;;;;;22.60;37.31;99829.75;30785452;28;97800;-67
2023/02/02 12:25:08;;;;;;;3.30;1.00;;;;;;;18.25;36.13;99849.44;30733668;28;96839;-72
2023/02/02 12:40:23;;;;;;;5.07;1.13;;;;;;;11.42;43.82;99872.53;30832268;28;96839;-71
2023/02/02 12:55:26;;;;;;;5.53;1.47;;;;;;;8.23;49.27;99912.50;30782369;28;97591;-70
2023/02/02 13:10:36;;;;;;;6.67;1.10;;;;;;;6.60;54.15;99920.13;30747457;28;97352;-68
2023/02/02 13:25:46;;;;;;;4.83;1.37;;;;;;;7.94;54.13;99943.75;30809488;28;97836;-70
2023/02/02 13:40:48;;;;;;;3.90;1.38;;;;;;;6.84;55.72;99961.06;30793770;28;97273;-72
2023/02/02 13:56:22;;;;;;;3.70;1.27;;;;;;;6.06;57.42;99989.66;30776444;28;96637;-71
2023/02/02 14:11:22;;;;;;;;;;;;;;;5.36;58.93;100024.31;30768682;28;97574;-70
2023/02/02 14:26:52;;;;;;;3.92;1.73;;;;;;;4.79;60.52;100042.63;30834567;28;97867;-70
2023/02/02 14:57:27;;;;;;;4.40;1.57;;;;;;;8.29;55.01;100082.53;30858401;28;97222;-70
2023/02/02 15:12:37;;;;;;;3.87;1.43;;;;;;;6.12;57.93;100127.59;30856360;28;97385;-72
2023/02/02 15:27:38;;;;;;;4.45;1.60;;;;;;;5.04;59.22;100160.13;30846204;28;98701;-71
2023/02/02 15:42:52;;;;;;;4.30;1.60;;;;;;;4.31;60.14;100199.78;30811080;28;97490;-68
2023/02/02 15:57:54;;;;;;;;;;;;;;;3.67;61.52;100240.22;30782021;28;97634;-68
2023/02/02 16:12:55;;;;;;;2.60;1.30;;;;;;;3.13;61.27;100298.00;30826297;28;97134;-68
2023/02/02 16:27:56;;;;;;;3.72;1.48;;;;;;;2.39;61.54;100335.13;30764172;28;97170;-65
2023/02/02 16:43:16;;;;;;;5.18;1.85;;;;;;;1.96;62.33;100381.16;30794368;28;96839;-68
2023/02/02 16:58:20;;;;;;;4.45;1.80;;;;;;;2.02;62.38;100425.41;30759336;28;96884;-70
2023/02/02 17:13:35;;;;;;;3.72;1.27;;;;;;;1.75;61.95;100487.75;30772934;28;96926;-67
2023/02/02 17:28:38;;;;;;;1.42;1.30;;;;;;;1.44;60.30;100490.72;30752429;28;97645;-67
2023/02/02 17:43:41;;;;;;;1.30;0.90;;;;;;;0.92;60.09;100523.06;30757723;28;96835;-67
2023/02/02 17:58:41;;;;;;;1.23;1.13;;;;;;;0.70;60.45;100568.16;30801194;28;98340;-67
2023/02/02 18:13:43;;;;;;;4.35;2.17;;;;;;;0.70;60.46;100582.13;30852049;28;97465;-70
2023/02/02 18:28:44;;;;;;;5.78;2.20;;;;;;;1.15;60.40;100616.84;30755434;28;98451;-69
2023/02/02 18:43:45;;;;;;;3.13;1.88;;;;;;;1.46;59.87;100646.38;30852214;28;97431;-66
2023/02/02 18:58:45;;;;;;;3.08;1.77;;;;;;;1.59;59.40;100687.56;30853778;28;96753;-65
2023/02/02 19:13:46;;;;;;;2.00;1.13;;;;;;;1.61;58.89;100718.03;30852648;28;96859;-65
2023/02/02 19:28:47;;;;;;;1.98;1.00;;;;;;;1.55;58.52;100722.84;30782758;28;97194;-68
2023/02/02 19:43:54;;;;;;;3.75;1.23;;;;;;;1.41;58.38;100747.34;30824394;28;96783;-65
2023/02/02 19:58:54;;;;;;;3.92;1.10;;;;;;;1.38;58.69;100774.66;30787312;28;97329;-70
2023/02/02 20:13:54;;;;;;;3.88;1.67;;;;;;;1.35;58.89;100796.69;30776271;28;97333;-70
2023/02/02 20:28:57;;;;;;;4.18;2.10;;;;;;;1.25;59.13;100832.31;30855960;28;97381;-66
2023/02/02 20:43:58;;;;;;;4.43;1.98;;;;;;;0.99;59.80;100832.13;30855348;28;97241;-67
2023/02/02 20:58:58;;;;;;;4.18;2.60;;;;;;;0.79;60.38;100856.09;30853772;28;96733;-69
2023/02/02 21:13:59;;;;;;;5.55;2.45;;;;;;;0.47;61.47;100871.94;30851995;28;96738;-71
2023/02/02 21:28:59;;;;;;;6.70;2.85;;;;;;;-0.06;61.81;100871.41;30851615;28;96735;-71
2023/02/02 21:44:00;;;;;;;5.40;2.88;;;;;;;-0.70;63.02;100869.56;30860106;28;97208;-70
2023/02/02 21:59:11;;;;;;;6.20;2.75;;;;;;;-1.16;64.06;100858.88;30872616;28;96652;-67
2023/02/02 22:14:16;;;;;;;6.47;2.90;;;;;;;-1.40;64.65;100864.41;30872282;28;96704;-67
2023/02/02 22:29:20;;;;;;;6.40;3.17;;;;;;;-1.71;65.59;100876.38;30869399;28;96875;-67
2023/02/02 22:44:20;;;;;;;6.93;2.97;;;;;;;-1.93;66.51;100894.00;30869211;28;96668;-69
2023/02/02 22:59:20;;;;;;;6.78;3.80;;;;;;;-2.14;67.33;100914.97;30868113;28;96650;-70
2023/02/02 23:14:21;;;;;;;7.57;4.05;;;;;;;-2.34;68.32;100912.44;30867079;28;96615;-69
2023/02/02 23:29:21;;;;;;;7.45;3.45;;;;;;;-2.49;68.33;100914.78;30863969;28;96967;-70
2023/02/02 23:44:22;;;;;;;7.00;3.22;;;;;;;-2.58;69.86;100916.06;30863682;28;96596;-69
2023/02/02 23:59:22;;;;;;;8.70;5.60;;;;;;;-2.65;69.71;100919.00;30862143;28;96689;-69
